Aérodrome :
LOGIN :

S'inscrire | Disclaimer

   EN    FR    IT 

 










Légende :    VFR   VFR Marginal   IFR   IFR Intensif   IFR Très Intensif
Visi : 
Plafond : 
>= 8 km
>= 3000ft
5 à 8 km
1000 à 3000 ft
1500m à 5 km
500 à 1000 ft
800 à 1500m
200 à 500 ft
< 800m
< 200 ft
Symboles :   Orages  Brouillard  Fortes neiges  Fortes précipitations  Vent > 20 kt
SIGMETs :   Divers  Orages  Givrage  Turbulence  Onde Orograph.  Cendres Volcan.







- Altitude de l'aérodrome : 600 ft
- Code IATA : VIE


LOWW - Vienna Schwechat

DERNIER METAR :
  • 200820Z VRB02KT 9999 FEW010 BKN011 M01/M03 Q1016 R88/19//95 TEMPO FEW010 BKN015

METARs EXPIRÉS :
  • 200750Z 08004KT 9999 FEW010 BKN016 M01/M04 Q1015 R88/19//95 TEMPO BKN010
  • 200720Z 07003KT 9999 FEW012 BKN014 M02/M04 Q1015 R88/19//95 BECMG FEW012 SCT014 BKN016
  • 200650Z 09004KT 9999 FEW012 SCT014 M02/M04 Q1015 R88/19//95 TEMPO FEW013 BKN014
  • 200620Z 10004KT 9999 FEW013 BKN015 M01/M04 Q1015 R88/19//95 TEMPO FEW013 BKN014
  • 200550Z 10004KT 9999 FEW014 BKN016 M02/M04 Q1015 R88/19//95 TEMPO FEW013 BKN014

TAF TAF LOWW
Valide du 20 à 09h jusqu'au 21 à 15h UTC


200815Z 2009/2115 07003KT 9999 FEW014 BKN020 TXM00/2113Z TNM04/2106Z
TEMPO 2009/2011 BKN014
BECMG 2014/2016 32007KT BKN030
BECMG 2022/2024 CAVOK
Pas de NOTAMs connus pour ce terrain.



MET'MAP, la Météo Aéronautique d'un coup d'oeil ! - Copyright ORBIFLY Décembre 2007 - Disclaimer

ORBIFLY MET'MAP TEAM :

Programmation & Développement : Alexandra Zaïnal
Conception & Développement : Baudouin d'Aumeries
Co-Programmation & Développement : Marc-Olivier Méhu
Soutien technique & logistique : Manuel Goepfert

Contact : metmap@orbifly.com




SOURCES & CREDITS :

   NOAA